CheckWX is a tool to help pilots better visualize weather data.  It is not intended as a substitute for an official pre-flight weather briefing.

18:37:48 UTC

D50 METAR
Crosby Municipal Airport
Crosby, North Dakota, USA
Current

23 mins ago

KD50 261815Z AUTO 21015KT 10SM CLR 10/09 A2991 RMK AO2
Observed
Mar-26 @ 18:15 UTC
Wind
  • 210° at 15 KTS
Visibility
10 SM
Flight Rules
VFR
Cloud Levels
  • Clear skies
Temperature
10°C / 50°F
Dewpoint
C / 48°F
Humidity
94%
Altimeter
29.91" Hg
Pressure
1012.92 hPa
Previous

43 mins ago

KD50 261755Z AUTO 20016KT 10SM CLR 09/09 A2991 RMK AO2
Observed
Mar-26 @ 17:55 UTC
Wind
  • 200° at 16 KTS
Visibility
10 SM
Flight Rules
VFR
Cloud Levels
  • Clear skies
Temperature
C / 48°F
Dewpoint
C / 48°F
Humidity
100%
Altimeter
29.91" Hg
Pressure
1012.92 hPa
Previous

1 hour ago

KD50 261735Z AUTO 21013KT 10SM CLR 08/08 A2992 RMK AO2
Observed
Mar-26 @ 17:35 UTC
Wind
  • 210° at 13 KTS
Visibility
10 SM
Flight Rules
VFR
Cloud Levels
  • Clear skies
Temperature
C / 46°F
Dewpoint
C / 46°F
Humidity
100%
Altimeter
29.92" Hg
Pressure
1013.22 hPa